KORF/ORF METAR and TAF weather

Enter ICAO airport designator
Station Type Date Time Source
KORF METAR 2020/09/19 18:07 UTC NOAA

KORF 191807Z 01013KT 10SM BKN030 OVC042 18/11 A3025 RMK AO2 T01830111


Station Type Date Time Source
KORF Decoded METAR 2020/09/19 18:07 UTC NOAA

NORFOLK INTERNATIONAL AIRPORT , VA, United States (KORF) 36-54N 076-12W 14M
Sep 19, 2020 - 02:07 PM EDT / 2020.09.19 1807 UTC
Wind: from the N (010 degrees) at 15 MPH (13 KT):0
Visibility: 10 mile(s):0
Sky conditions: overcast
Temperature: 64.9 F (18.3 C)
Dew Point: 52.0 F (11.1 C)
Relative Humidity: 62%
Pressure (altimeter): 30.25 in. Hg (1024 hPa)
ob: KORF 191807Z 01013KT 10SM BKN030 OVC042 18/11 A3025 RMK AO2 T01830111
cycle: 18

Station Type Date Time Source
KORF TAF 2020/09/19 18:42 UTC NOAA

TAF KORF 191739Z 1918/2018 01015G24KT P6SM SCT025 OVC035
TEMPO 1918/1919 BKN025
FM200200 04014G22KT P6SM BKN045
FM201400 04016G25KT P6SM SCT025 BKN040

Example: see airport list